LFSI 220830Z AUTO 22006KT 140V250 9999 OVC043/// 21/13 Q1013

ElémentsDécodage
LFSI Station météo située sur l'aérodrome de SAINT-DIZIER Robinson
220830Z émis le 22 du mois à 08h30 UTC
AUTO Bulletin édité par un automate
22006KT vent du 220°, 06 noeuds
140V250 vent de direction variable entre 140° et 250°
9999 visibilité horizontale supérieure à 10 Km
OVC043/// couverture nuageuse totale (8/8) à 4300 pieds
 type de nuage non observable
21/13 température 21°C, point de rosée 13°C
 soit une humidité relative de 60%
Q1013 la pression au niveau de la mer (QNH) est de 1013 hPa